Time;durP1;ratioP1;P1;durP2;ratioP2;P2;SDS_P1;SDS_P2;PMS_P1;PMS_P2;Temp;Humidity;BMP_temperature;BMP_pressure;BME280_temperature;BME280_humidity;BME280_pressure;Samples;Min_cycle;Max_cycle;Signal;HPM_P1;HPM_P2
2022/11/10 00:00:34;;;;;;;17.30;2.33;;;10.00;99.90;;;;;;5022714;28;20037;-68
2022/11/10 00:03:05;;;;;;;12.18;1.90;;;10.00;99.90;;;;;;5023885;28;20059;-68
2022/11/10 00:05:31;;;;;;;16.80;2.05;;;9.90;99.90;;;;;;5024803;28;20049;-67
2022/11/10 00:08:01;;;;;;;15.43;1.98;;;9.90;99.90;;;;;;5024313;28;20042;-69
2022/11/10 00:10:26;;;;;;;14.18;1.80;;;9.90;99.90;;;;;;5023451;28;20025;-69
2022/11/10 00:12:52;;;;;;;14.38;3.42;;;9.90;99.90;;;;;;5025133;28;20046;-69
2022/11/10 00:18:02;;;;;;;9.60;1.85;;;9.90;99.90;;;;;;5025222;28;20925;-69
2022/11/10 00:20:28;;;;;;;13.95;1.73;;;9.90;99.90;;;;;;5025449;28;20519;-67
2022/11/10 00:22:54;;;;;;;9.88;1.92;;;9.90;99.90;;;;;;5025415;28;20053;-68
2022/11/10 00:25:20;;;;;;;11.75;1.70;;;9.80;99.90;;;;;;5023968;28;20037;-69
2022/11/10 00:27:45;;;;;;;10.55;1.63;;;9.80;99.90;;;;;;5025422;28;20032;-68
2022/11/10 00:30:11;;;;;;;8.60;1.58;;;9.90;99.90;;;;;;5024630;28;20173;-67
2022/11/10 00:32:37;;;;;;;12.25;3.20;;;9.90;99.90;;;;;;5023896;28;20029;-69
2022/11/10 00:35:03;;;;;;;26.88;2.25;;;10.00;99.90;;;;;;5024838;28;20824;-68
2022/11/10 00:37:29;;;;;;;13.48;2.40;;;10.00;99.90;;;;;;5024773;28;20041;-67
2022/11/10 00:39:54;;;;;;;11.20;2.53;;;10.00;99.90;;;;;;5024960;28;20048;-68
2022/11/10 00:42:20;;;;;;;15.25;2.30;;;10.10;99.90;;;;;;5024185;28;20079;-69
2022/11/10 00:44:45;;;;;;;9.55;1.35;;;10.10;99.90;;;;;;5022978;28;20044;-69
2022/11/10 00:47:12;;;;;;;15.90;1.52;;;10.10;99.90;;;;;;5022592;28;20030;-68
2022/11/10 00:49:37;;;;;;;13.98;2.22;;;10.10;99.90;;;;;;5024946;28;20048;-68
2022/11/10 00:52:03;;;;;;;12.10;2.47;;;10.00;99.90;;;;;;5019590;28;20033;-69
2022/11/10 00:54:28;;;;;;;11.38;1.50;;;10.00;99.90;;;;;;5022601;28;20029;-69
2022/11/10 00:56:54;;;;;;;11.15;1.40;;;10.00;99.90;;;;;;5023615;28;20083;-67
2022/11/10 00:59:20;;;;;;;17.00;2.78;;;9.90;99.90;;;;;;5024069;28;20183;-69
2022/11/10 01:01:45;;;;;;;8.35;1.85;;;9.90;99.90;;;;;;5025273;28;20037;-69
2022/11/10 01:04:11;;;;;;;9.75;1.63;;;9.90;99.90;;;;;;5022302;28;20125;-69
2022/11/10 01:06:37;;;;;;;18.52;2.00;;;9.90;99.90;;;;;;5025157;28;20061;-70
2022/11/10 01:09:03;;;;;;;14.48;2.75;;;9.90;99.90;;;;;;5017958;28;20045;-68
2022/11/10 01:11:28;;;;;;;11.15;2.10;;;9.80;99.90;;;;;;5025032;28;20029;-67
2022/11/10 01:13:55;;;;;;;16.98;2.40;;;9.80;99.90;;;;;;5027923;28;20513;-68
2022/11/10 01:16:25;;;;;;;11.45;1.40;;;9.80;99.90;;;;;;5026286;28;20030;-68
2022/11/10 01:18:57;;;;;;;7.30;1.73;;;9.80;99.90;;;;;;5028902;28;20108;-69
2022/11/10 01:21:24;;;;;;;16.58;1.73;;;9.90;99.90;;;;;;5027254;28;20038;-68
2022/11/10 01:23:50;;;;;;;15.80;2.40;;;9.90;99.90;;;;;;5027674;28;20038;-67
2022/11/10 01:26:16;;;;;;;9.45;2.40;;;10.00;99.90;;;;;;5027072;28;20042;-69
2022/11/10 01:28:42;;;;;;;7.78;1.40;;;10.00;99.90;;;;;;5026776;28;20041;-68
2022/11/10 01:31:11;;;;;;;9.40;1.73;;;10.00;99.90;;;;;;5027858;28;20466;-68
2022/11/10 01:33:37;;;;;;;15.25;2.78;;;10.00;99.90;;;;;;5027409;28;20060;-68
2022/11/10 01:36:03;;;;;;;16.50;2.45;;;10.00;99.90;;;;;;5026003;28;20038;-68
2022/11/10 01:38:32;;;;;;;12.23;2.00;;;9.90;99.90;;;;;;5026349;28;20127;-70
2022/11/10 01:40:58;;;;;;;8.88;2.20;;;9.90;99.90;;;;;;5027979;28;20084;-69
2022/11/10 01:43:25;;;;;;;12.75;1.88;;;9.90;99.90;;;;;;5024368;28;20033;-69
2022/11/10 01:45:59;;;;;;;13.77;2.15;;;9.90;99.90;;;;;;5025024;28;20060;-73
2022/11/10 01:48:45;;;;;;;13.48;2.70;;;9.80;99.90;;;;;;5023184;28;20099;-69
2022/11/10 01:51:28;;;;;;;29.10;3.20;;;9.90;99.90;;;;;;5018426;28;20408;-69
2022/11/10 01:54:01;;;;;;;19.02;2.47;;;9.90;99.90;;;;;;5019655;28;20037;-68
2022/11/10 01:56:31;;;;;;;9.25;2.50;;;9.80;99.90;;;;;;5020828;28;20033;-69
2022/11/10 01:59:01;;;;;;;16.55;2.33;;;9.80;99.90;;;;;;5027782;28;20590;-68
2022/11/10 02:01:26;;;;;;;10.05;2.17;;;9.80;99.90;;;;;;5026738;28;20034;-69
2022/11/10 02:03:58;;;;;;;13.07;2.47;;;9.90;99.90;;;;;;5025791;28;20052;-69
2022/11/10 02:06:28;;;;;;;14.85;2.50;;;9.80;99.90;;;;;;5027136;28;20083;-69
2022/11/10 02:08:55;;;;;;;19.88;2.70;;;9.80;99.90;;;;;;5027791;28;20053;-68
2022/11/10 02:11:22;;;;;;;13.35;2.33;;;9.80;99.90;;;;;;5026741;28;20048;-72
2022/11/10 02:13:48;;;;;;;24.75;3.55;;;9.80;99.90;;;;;;5026992;28;20037;-67
2022/11/10 02:16:13;;;;;;;15.60;2.10;;;9.80;99.90;;;;;;5026440;28;20033;-68
2022/11/10 02:18:39;;;;;;;10.25;1.60;;;9.80;99.90;;;;;;5027662;28;20036;-70
2022/11/10 02:21:07;;;;;;;9.80;1.75;;;9.80;99.90;;;;;;5025476;28;20037;-68
2022/11/10 02:23:36;;;;;;;11.10;2.25;;;9.80;99.90;;;;;;5024302;28;20033;-68
2022/11/10 02:26:04;;;;;;;16.15;2.17;;;9.80;99.90;;;;;;5021664;28;20041;-70
2022/11/10 02:28:35;;;;;;;11.35;3.35;;;9.80;99.90;;;;;;5021117;28;20543;-69
2022/11/10 02:31:01;;;;;;;27.15;3.60;;;9.70;99.90;;;;;;5023492;28;20044;-69
2022/11/10 02:33:26;;;;;;;17.13;2.92;;;9.70;99.90;;;;;;5023962;28;20099;-68
2022/11/10 02:35:52;;;;;;;12.20;2.83;;;9.70;99.90;;;;;;5024769;28;20048;-68
2022/11/10 02:38:17;;;;;;;12.60;2.47;;;9.70;99.90;;;;;;5024417;28;20498;-67
2022/11/10 02:40:43;;;;;;;20.17;3.03;;;9.70;99.90;;;;;;5024701;28;20057;-68
2022/11/10 02:43:12;;;;;;;11.43;1.90;;;9.70;99.90;;;;;;5024244;28;20043;-69
2022/11/10 02:45:43;;;;;;;32.30;4.13;;;9.70;99.90;;;;;;5025506;28;20083;-69
2022/11/10 02:48:10;;;;;;;15.38;2.20;;;9.70;99.90;;;;;;5025506;28;20063;-69
2022/11/10 02:50:36;;;;;;;12.98;2.85;;;9.70;99.90;;;;;;5025557;28;20029;-68
2022/11/10 02:53:02;;;;;;;15.93;2.45;;;9.70;99.90;;;;;;5026777;28;20583;-69
2022/11/10 02:55:28;;;;;;;10.73;2.42;;;9.70;99.90;;;;;;5025812;28;20041;-69
2022/11/10 02:57:54;;;;;;;14.68;2.88;;;9.70;99.90;;;;;;5026533;28;20029;-70
2022/11/10 03:00:19;;;;;;;15.30;3.50;;;9.70;99.90;;;;;;5024403;28;20490;-69
2022/11/10 03:02:45;;;;;;;20.95;1.77;;;9.70;99.90;;;;;;5026252;28;20119;-68
2022/11/10 03:05:11;;;;;;;13.75;2.20;;;9.60;99.90;;;;;;5025706;28;20187;-68
2022/11/10 03:07:37;;;;;;;15.27;1.90;;;9.60;99.90;;;;;;5025953;28;20033;-68
2022/11/10 03:10:04;;;;;;;6.70;1.92;;;9.60;99.90;;;;;;5025949;28;20026;-74
2022/11/10 03:12:29;;;;;;;25.13;3.72;;;9.60;99.90;;;;;;5025246;28;20033;-67
2022/11/10 03:14:55;;;;;;;14.68;1.92;;;9.60;99.90;;;;;;5020741;28;20498;-70
2022/11/10 03:17:21;;;;;;;11.00;2.22;;;9.60;99.90;;;;;;5024117;28;20029;-68
2022/11/10 03:19:46;;;;;;;13.98;1.75;;;9.60;99.90;;;;;;5026456;28;20498;-70
2022/11/10 03:22:12;;;;;;;16.85;2.33;;;9.60;99.90;;;;;;5025126;28;20552;-70
2022/11/10 03:24:37;;;;;;;19.38;2.50;;;9.60;99.90;;;;;;5025258;28;20115;-69
2022/11/10 03:27:03;;;;;;;19.48;4.55;;;9.60;99.90;;;;;;5024120;28;20099;-70
2022/11/10 03:29:28;;;;;;;18.98;3.42;;;9.60;99.90;;;;;;5024505;28;20044;-68
2022/11/10 03:31:54;;;;;;;21.77;3.00;;;9.50;99.90;;;;;;5024844;28;20034;-69
2022/11/10 03:34:20;;;;;;;18.73;2.30;;;9.50;99.90;;;;;;5024904;28;20533;-68
2022/11/10 03:36:45;;;;;;;14.90;2.35;;;9.50;99.90;;;;;;5025981;28;20029;-68
2022/11/10 03:39:11;;;;;;;17.02;2.03;;;9.60;99.90;;;;;;5023618;28;20045;-68
2022/11/10 03:41:36;;;;;;;18.20;2.42;;;9.50;99.90;;;;;;5025543;28;20025;-70
2022/11/10 03:44:02;;;;;;;18.70;2.00;;;9.50;99.90;;;;;;5025788;28;20041;-69
2022/11/10 03:46:27;;;;;;;12.35;2.75;;;9.50;99.90;;;;;;5024972;28;20071;-68
2022/11/10 03:48:53;;;;;;;14.90;2.03;;;9.50;99.90;;;;;;5026316;28;20037;-69
2022/11/10 03:51:19;;;;;;;14.52;2.10;;;9.50;99.90;;;;;;5025411;28;20041;-68
2022/11/10 03:53:45;;;;;;;15.73;2.95;;;9.40;99.90;;;;;;5023841;28;20067;-69
2022/11/10 03:56:11;;;;;;;18.30;3.22;;;9.40;99.90;;;;;;5025781;28;20131;-69
2022/11/10 03:58:37;;;;;;;17.58;2.92;;;9.40;99.90;;;;;;5025874;28;20505;-74
2022/11/10 04:01:03;;;;;;;11.50;2.15;;;9.40;99.90;;;;;;5026278;28;20072;-75
2022/11/10 04:03:28;;;;;;;11.48;3.65;;;9.40;99.90;;;;;;5025550;28;20490;-67
2022/11/10 04:16:51;;;;;;;16.60;2.83;;;9.40;99.90;;;;;;5021546;28;20565;-69
2022/11/10 04:19:16;;;;;;;12.90;3.15;;;9.50;99.90;;;;;;5023781;28;20121;-69
2022/11/10 04:21:42;;;;;;;18.25;2.90;;;9.40;99.90;;;;;;5025834;28;20049;-68
2022/11/10 04:24:08;;;;;;;16.33;3.53;;;9.40;99.90;;;;;;5025171;28;20128;-69
2022/11/10 04:26:37;;;;;;;15.57;2.88;;;9.40;99.90;;;;;;5023752;28;20038;-69
2022/11/10 04:29:05;;;;;;;16.80;2.53;;;9.40;99.90;;;;;;5025133;28;20428;-73
2022/11/10 04:31:32;;;;;;;14.60;2.58;;;9.50;99.90;;;;;;5024362;28;20025;-68
2022/11/10 04:33:59;;;;;;;32.33;6.43;;;9.50;99.90;;;;;;5025394;28;20117;-68
2022/11/10 04:36:27;;;;;;;14.18;2.53;;;9.50;99.90;;;;;;5023915;28;20411;-69
2022/11/10 04:38:54;;;;;;;16.90;2.22;;;9.40;99.90;;;;;;5021104;28;20626;-69
2022/11/10 04:41:21;;;;;;;15.18;2.92;;;9.40;99.90;;;;;;5023669;28;20037;-69
2022/11/10 04:43:46;;;;;;;21.77;3.42;;;9.40;99.90;;;;;;5025010;28;20038;-68
2022/11/10 04:46:33;;;;;;;17.85;3.35;;;9.50;99.90;;;;;;5026512;28;20044;-73
2022/11/10 04:48:59;;;;;;;22.30;2.72;;;9.50;99.90;;;;;;5025164;28;20037;-69
2022/11/10 04:51:28;;;;;;;14.75;3.20;;;9.40;99.90;;;;;;5028488;28;20673;-74
2022/11/10 04:53:53;;;;;;;15.68;2.53;;;9.40;99.90;;;;;;5027252;28;20056;-69
2022/11/10 04:56:21;;;;;;;14.77;3.33;;;9.40;99.90;;;;;;5023014;28;20041;-70
2022/11/10 04:58:47;;;;;;;17.40;2.70;;;9.40;99.90;;;;;;5029320;28;20112;-69
2022/11/10 05:01:15;;;;;;;13.48;3.13;;;9.50;99.90;;;;;;5028848;28;20073;-69
2022/11/10 05:03:42;;;;;;;12.30;2.60;;;9.50;99.90;;;;;;5028965;28;20034;-68
2022/11/10 05:06:08;;;;;;;12.25;2.60;;;9.50;99.90;;;;;;5029027;28;20077;-69
2022/11/10 05:08:35;;;;;;;14.80;2.13;;;9.40;99.90;;;;;;5027411;28;20033;-68
2022/11/10 05:11:00;;;;;;;18.65;3.45;;;9.40;99.90;;;;;;5029408;28;20101;-69
2022/11/10 05:13:26;;;;;;;18.25;2.80;;;9.50;99.90;;;;;;5027839;28;20136;-69
2022/11/10 05:15:52;;;;;;;20.88;2.67;;;9.50;99.90;;;;;;5027665;28;20037;-69
2022/11/10 05:18:17;;;;;;;19.35;2.33;;;9.50;99.90;;;;;;5028084;28;20117;-69
2022/11/10 05:20:43;;;;;;;14.35;2.42;;;9.50;99.90;;;;;;5028694;28;20033;-68
2022/11/10 05:25:53;;;;;;;13.60;2.10;;;9.50;99.90;;;;;;5020552;28;20068;-69
2022/11/10 05:28:18;;;;;;;17.20;2.97;;;9.50;99.90;;;;;;5018565;28;20057;-69
2022/11/10 05:30:44;;;;;;;13.52;2.25;;;9.50;99.90;;;;;;5023445;28;20119;-70
2022/11/10 05:33:10;;;;;;;13.30;2.53;;;9.50;99.90;;;;;;5027642;28;20362;-69
2022/11/10 05:35:36;;;;;;;16.33;2.70;;;9.50;99.90;;;;;;5027042;28;20509;-69
2022/11/10 05:38:03;;;;;;;15.00;2.35;;;9.40;99.90;;;;;;5028035;28;20087;-69
2022/11/10 05:40:29;;;;;;;17.90;3.08;;;9.40;99.90;;;;;;5023962;28;20037;-67
2022/11/10 05:42:55;;;;;;;17.52;2.58;;;9.40;99.90;;;;;;5027738;28;20104;-68
2022/11/10 05:45:22;;;;;;;10.65;2.65;;;9.40;99.90;;;;;;5025405;28;20569;-69
2022/11/10 05:47:48;;;;;;;16.85;3.38;;;9.40;99.90;;;;;;5027634;28;20037;-69
2022/11/10 05:50:14;;;;;;;13.65;3.00;;;9.40;99.90;;;;;;5026993;28;20083;-70
2022/11/10 05:52:58;;;;;;;10.98;2.35;;;9.40;99.90;;;;;;5027834;28;20026;-69
2022/11/10 05:55:26;;;;;;;12.88;3.22;;;9.30;99.90;;;;;;5025182;28;20037;-69
2022/11/10 05:57:53;;;;;;;18.60;2.65;;;9.30;99.90;;;;;;5026244;28;20573;-69
2022/11/10 06:00:29;;;;;;;12.60;2.05;;;9.30;99.90;;;;;;5017540;28;20041;-69
2022/11/10 06:03:06;;;;;;;15.95;2.00;;;9.30;99.90;;;;;;5018591;28;20041;-70
2022/11/10 06:05:34;;;;;;;10.77;2.10;;;9.30;99.90;;;;;;5016625;28;20045;-69
2022/11/10 06:08:01;;;;;;;13.35;2.92;;;9.30;99.90;;;;;;5022638;28;20050;-67
2022/11/10 06:10:27;;;;;;;8.77;2.00;;;9.30;99.90;;;;;;5016576;28;20092;-68
2022/11/10 06:12:53;;;;;;;14.30;1.77;;;9.30;99.90;;;;;;5015110;28;20049;-68
2022/11/10 06:15:18;;;;;;;17.88;3.38;;;9.20;99.90;;;;;;5017952;28;20582;-69
2022/11/10 06:17:45;;;;;;;25.75;3.40;;;9.20;99.90;;;;;;5018844;28;20057;-70
2022/11/10 06:20:11;;;;;;;16.02;3.25;;;9.20;99.90;;;;;;5014555;28;20531;-69
2022/11/10 06:22:37;;;;;;;7.25;2.10;;;9.20;99.90;;;;;;5017931;28;20092;-69
2022/11/10 06:25:03;;;;;;;16.25;2.83;;;9.20;99.90;;;;;;5019890;28;20155;-69
2022/11/10 06:27:28;;;;;;;11.23;2.67;;;9.20;99.90;;;;;;5016313;28;20033;-67
2022/11/10 06:29:54;;;;;;;14.35;3.42;;;9.20;99.90;;;;;;5014607;28;20437;-69
2022/11/10 06:32:20;;;;;;;13.15;3.10;;;9.20;99.90;;;;;;5031324;28;20045;-70
2022/11/10 06:34:45;;;;;;;13.10;2.75;;;9.30;99.90;;;;;;5019513;28;20042;-67
2022/11/10 06:37:11;;;;;;;12.85;2.83;;;9.30;99.90;;;;;;5017559;28;20837;-68
2022/11/10 06:39:36;;;;;;;30.10;3.35;;;9.30;99.90;;;;;;5018528;28;20025;-67
2022/11/10 06:42:02;;;;;;;7.00;1.92;;;9.30;99.90;;;;;;5019886;28;20542;-69
2022/11/10 06:44:27;;;;;;;19.13;3.47;;;9.30;99.90;;;;;;5014171;28;20037;-68
2022/11/10 06:46:53;;;;;;;12.35;2.45;;;9.30;99.90;;;;;;5019196;28;20106;-68
2022/11/10 06:49:19;;;;;;;13.48;2.97;;;9.30;99.90;;;;;;5015188;28;20126;-70
2022/11/10 06:51:45;;;;;;;10.52;3.10;;;9.30;99.90;;;;;;5017904;28;20041;-69
2022/11/10 06:54:10;;;;;;;9.60;2.25;;;9.30;99.90;;;;;;5013845;28;20454;-68
2022/11/10 06:56:36;;;;;;;17.02;2.47;;;9.30;99.90;;;;;;5017552;28;20034;-69
2022/11/10 06:59:02;;;;;;;12.20;3.05;;;9.30;99.90;;;;;;5015858;28;20040;-69
2022/11/10 07:01:27;;;;;;;10.85;2.70;;;9.30;99.90;;;;;;5014420;28;20037;-69
2022/11/10 07:03:53;;;;;;;12.98;2.28;;;9.40;99.90;;;;;;5017948;28;20056;-67
2022/11/10 07:06:19;;;;;;;16.58;2.33;;;9.40;99.90;;;;;;5018278;28;20041;-71
2022/11/10 07:08:46;;;;;;;16.17;2.70;;;9.40;99.90;;;;;;5019637;28;20037;-68
2022/11/10 07:11:12;;;;;;;13.85;2.15;;;9.40;99.90;;;;;;5013285;28;20040;-68
2022/11/10 07:13:37;;;;;;;12.93;2.58;;;9.40;99.90;;;;;;5015623;28;20037;-67
2022/11/10 07:16:04;;;;;;;12.50;2.15;;;9.40;99.90;;;;;;5019725;28;20478;-69
2022/11/10 07:18:30;;;;;;;15.07;3.30;;;9.40;99.90;;;;;;5015742;28;20037;-68
2022/11/10 07:20:55;;;;;;;13.88;2.10;;;9.40;99.90;;;;;;5016580;28;20080;-71
2022/11/10 07:23:21;;;;;;;9.90;1.80;;;9.40;99.90;;;;;;5016360;28;20040;-70
2022/11/10 07:25:46;;;;;;;6.30;2.00;;;9.40;99.90;;;;;;5015670;28;20695;-69
2022/11/10 07:28:12;;;;;;;19.23;3.95;;;9.40;99.90;;;;;;5016064;28;20569;-68
2022/11/10 07:30:40;;;;;;;19.77;2.47;;;9.50;99.90;;;;;;5018074;28;20037;-70
2022/11/10 07:33:05;;;;;;;13.05;1.70;;;9.50;99.90;;;;;;5016025;28;20072;-69
2022/11/10 07:35:32;;;;;;;13.70;2.78;;;9.50;99.90;;;;;;5013524;28;20084;-68
2022/11/10 07:38:01;;;;;;;13.00;1.80;;;9.50;99.90;;;;;;5017882;28;20052;-69
2022/11/10 07:40:27;;;;;;;9.43;2.70;;;9.50;99.90;;;;;;5016245;28;20148;-69
2022/11/10 07:42:52;;;;;;;10.85;2.05;;;9.50;99.90;;;;;;5015351;28;20571;-69
2022/11/10 07:45:18;;;;;;;9.80;2.10;;;9.50;99.90;;;;;;5013473;28;20042;-68
2022/11/10 07:47:44;;;;;;;9.75;2.90;;;9.50;99.90;;;;;;5015540;28;20038;-68
2022/11/10 07:50:10;;;;;;;19.27;2.90;;;9.60;99.90;;;;;;5015303;28;20041;-68
2022/11/10 07:52:35;;;;;;;12.80;2.22;;;9.60;99.90;;;;;;5012553;28;20032;-67
2022/11/10 07:55:01;;;;;;;16.73;3.28;;;9.60;99.90;;;;;;5013432;28;20041;-68
2022/11/10 07:57:27;;;;;;;8.73;2.28;;;9.70;99.90;;;;;;5016752;28;20117;-68
2022/11/10 07:59:53;;;;;;;11.05;2.78;;;9.70;99.90;;;;;;5015059;28;20042;-68
2022/11/10 08:02:18;;;;;;;10.65;2.38;;;9.80;99.90;;;;;;5014444;28;20029;-70
2022/11/10 08:04:44;;;;;;;19.05;2.33;;;9.80;99.90;;;;;;5017209;28;20557;-69
2022/11/10 08:07:09;;;;;;;11.98;3.10;;;9.90;99.90;;;;;;5011805;28;20068;-69
2022/11/10 08:09:35;;;;;;;17.48;1.83;;;10.00;99.90;;;;;;5015126;28;20057;-69
2022/11/10 08:12:00;;;;;;;13.32;2.88;;;10.10;99.90;;;;;;5020415;28;20072;-70
2022/11/10 08:14:26;;;;;;;12.05;2.53;;;10.20;99.90;;;;;;5013142;28;20513;-70
2022/11/10 08:16:51;;;;;;;13.27;2.53;;;10.30;99.90;;;;;;5014431;28;20519;-69
2022/11/10 08:19:17;;;;;;;12.88;3.55;;;10.40;99.90;;;;;;5018307;28;20037;-69
2022/11/10 08:21:43;;;;;;;18.10;3.20;;;10.50;99.90;;;;;;5019952;28;20052;-70
2022/11/10 08:24:08;;;;;;;16.63;2.63;;;10.60;99.90;;;;;;5019072;28;20524;-70
2022/11/10 08:26:34;;;;;;;17.10;2.13;;;10.70;99.90;;;;;;5020801;28;20045;-68
2022/11/10 08:29:00;;;;;;;12.35;2.78;;;10.80;99.90;;;;;;5020684;28;20878;-70
2022/11/10 08:31:25;;;;;;;10.77;2.15;;;10.90;99.90;;;;;;5018565;28;20033;-68
2022/11/10 08:33:51;;;;;;;15.73;2.70;;;11.00;99.90;;;;;;5020361;28;20060;-70
2022/11/10 08:36:17;;;;;;;16.48;2.80;;;11.10;99.90;;;;;;5019590;28;20117;-68
2022/11/10 08:38:42;;;;;;;8.38;2.00;;;11.20;99.90;;;;;;5017854;28;20052;-69
2022/11/10 08:41:08;;;;;;;11.65;2.33;;;11.20;99.90;;;;;;5020118;28;20061;-69
2022/11/10 08:43:33;;;;;;;10.82;2.20;;;11.30;99.90;;;;;;5018455;28;20040;-71
2022/11/10 08:46:00;;;;;;;7.10;1.88;;;11.30;99.90;;;;;;5021052;28;20139;-69
2022/11/10 08:48:26;;;;;;;14.65;2.42;;;11.30;99.90;;;;;;5018669;28;20030;-69
2022/11/10 08:50:52;;;;;;;11.32;2.60;;;11.30;99.90;;;;;;5018975;28;20443;-68
2022/11/10 08:53:20;;;;;;;13.68;2.28;;;11.40;99.90;;;;;;5018693;28;20022;-68
2022/11/10 08:55:46;;;;;;;10.65;2.13;;;11.40;99.90;;;;;;5019174;28;20117;-68
2022/11/10 08:58:18;;;;;;;18.05;3.72;;;11.40;99.90;;;;;;5019583;28;20029;-70
2022/11/10 09:00:44;;;;;;;10.93;1.88;;;11.40;99.90;;;;;;5020250;28;20033;-69
2022/11/10 09:03:19;;;;;;;12.52;2.45;;;11.50;99.90;;;;;;5020889;28;20095;-70
2022/11/10 09:05:46;;;;;;;11.90;1.77;;;11.40;99.90;;;;;;5019151;28;20064;-68
2022/11/10 09:08:12;;;;;;;10.77;1.80;;;11.50;99.90;;;;;;5019768;28;20094;-68
2022/11/10 09:10:41;;;;;;;10.32;1.50;;;11.60;99.90;;;;;;5020953;28;20033;-69
2022/11/10 09:13:08;;;;;;;10.25;2.08;;;11.60;99.90;;;;;;5016110;28;20045;-69
2022/11/10 09:15:35;;;;;;;12.77;1.80;;;11.70;99.90;;;;;;5018293;28;20092;-70
2022/11/10 09:18:02;;;;;;;13.88;2.17;;;11.70;99.90;;;;;;5019793;28;20033;-69
2022/11/10 09:20:30;;;;;;;10.77;1.80;;;11.80;99.90;;;;;;5016415;28;20061;-69
2022/11/10 09:22:55;;;;;;;7.07;2.40;;;12.00;99.90;;;;;;5020281;28;20465;-69
2022/11/10 09:25:22;;;;;;;7.38;2.40;;;12.00;99.90;;;;;;5017985;28;20093;-69
2022/11/10 09:27:47;;;;;;;15.27;1.77;;;12.10;99.90;;;;;;5017169;28;20069;-68
2022/11/10 09:30:13;;;;;;;9.55;1.95;;;12.10;99.90;;;;;;5018572;28;20165;-70
2022/11/10 09:32:39;;;;;;;16.58;1.80;;;12.20;99.90;;;;;;5018141;28;20026;-69
2022/11/10 09:35:05;;;;;;;15.15;2.25;;;12.20;99.90;;;;;;5020568;28;20048;-69
2022/11/10 09:37:31;;;;;;;8.20;1.73;;;12.30;99.90;;;;;;5015730;28;20030;-69
2022/11/10 09:39:56;;;;;;;16.55;1.88;;;12.30;99.90;;;;;;5017350;28;20486;-70
2022/11/10 09:42:22;;;;;;;7.00;1.67;;;12.40;99.90;;;;;;5015590;28;20238;-69
2022/11/10 09:44:59;;;;;;;13.38;2.22;;;12.50;99.90;;;;;;5017821;28;20670;-69
2022/11/10 09:47:40;;;;;;;9.20;1.60;;;12.60;99.90;;;;;;5019863;28;20137;-68
2022/11/10 09:50:12;;;;;;;20.65;2.30;;;12.70;99.90;;;;;;5017699;28;20108;-68
2022/11/10 09:52:39;;;;;;;11.25;2.20;;;12.70;99.90;;;;;;5016298;28;20033;-70
2022/11/10 09:55:16;;;;;;;10.05;1.80;;;12.80;99.90;;;;;;5019337;28;20032;-69
2022/11/10 09:57:43;;;;;;;13.48;1.63;;;12.90;99.90;;;;;;5020117;28;20043;-68
2022/11/10 10:00:13;;;;;;;10.07;2.40;;;12.90;99.90;;;;;;5020671;28;20037;-70
2022/11/10 10:02:44;;;;;;;9.43;1.83;;;13.00;99.90;;;;;;5017067;28;20131;-69
2022/11/10 10:05:28;;;;;;;;;;;12.90;99.90;;;;;;5017352;28;20399;-67
2022/11/10 10:08:09;;;;;;;12.80;1.55;;;13.00;99.90;;;;;;5019584;28;19921;-69
2022/11/10 10:10:46;;;;;;;9.65;2.42;;;13.00;99.90;;;;;;5017004;28;20044;-68
2022/11/10 10:13:33;;;;;;;9.15;1.83;;;13.00;99.90;;;;;;5016904;28;20033;-69
2022/11/10 10:16:04;;;;;;;7.15;1.48;;;13.00;99.90;;;;;;5017839;28;20124;-69
2022/11/10 10:18:49;;;;;;;7.72;1.40;;;13.00;99.90;;;;;;5019487;28;20045;-69
2022/11/10 10:21:39;;;;;;;11.25;1.83;;;13.10;99.90;;;;;;5017698;28;20067;-68
2022/11/10 10:24:11;;;;;;;11.30;1.77;;;13.10;99.90;;;;;;5016994;28;20493;-71
2022/11/10 10:26:43;;;;;;;9.65;2.40;;;13.20;99.90;;;;;;5013034;28;20049;-70
2022/11/10 10:29:17;;;;;;;20.02;2.35;;;13.20;99.90;;;;;;5016277;28;20079;-69
2022/11/10 10:31:47;;;;;;;11.32;2.05;;;13.40;99.90;;;;;;5017213;28;20116;-68
2022/11/10 10:34:24;;;;;;;5.53;1.17;;;13.40;99.90;;;;;;5017003;28;20292;-68
2022/11/10 10:36:50;;;;;;;16.95;1.77;;;13.50;99.90;;;;;;5016815;28;20132;-70
2022/11/10 10:39:22;;;;;;;12.40;1.85;;;13.60;99.90;;;;;;5014882;28;20448;-69
2022/11/10 10:41:48;;;;;;;7.80;1.50;;;13.70;99.90;;;;;;5015921;28;20041;-67
2022/11/10 10:44:16;;;;;;;15.00;1.95;;;13.80;99.90;;;;;;5015296;28;20112;-69
2022/11/10 10:46:56;;;;;;;21.13;3.15;;;14.00;99.90;;;;;;5016964;28;20140;-68
2022/11/10 10:49:23;;;;;;;10.02;1.40;;;14.10;99.90;;;;;;5013945;28;20037;-69
2022/11/10 10:51:50;;;;;;;8.95;1.65;;;14.20;99.90;;;;;;5014416;28;20532;-68
2022/11/10 10:54:27;;;;;;;10.48;1.35;;;14.30;99.90;;;;;;5014523;28;20030;-69
2022/11/10 10:57:18;;;;;;;9.70;1.42;;;14.20;99.90;;;;;;5017187;28;20075;-70
2022/11/10 10:59:43;;;;;;;;;;;14.10;99.90;;;;;;5014088;28;20104;-67
2022/11/10 11:02:27;;;;;;;6.22;1.65;;;14.20;99.90;;;;;;5015238;28;19917;-69
2022/11/10 11:05:22;;;;;;;7.10;1.55;;;14.10;99.90;;;;;;5015453;28;20041;-68
2022/11/10 11:07:56;;;;;;;14.50;1.80;;;14.10;99.90;;;;;;5008101;28;20049;-68
2022/11/10 11:10:33;;;;;;;10.48;1.13;;;14.10;99.90;;;;;;5018201;28;20025;-68
2022/11/10 11:13:22;;;;;;;7.80;1.63;;;14.20;99.90;;;;;;5018207;28;20120;-69
2022/11/10 11:16:06;;;;;;;11.50;1.58;;;14.10;99.90;;;;;;5012549;28;20091;-70
2022/11/10 11:18:34;;;;;;;8.32;1.23;;;14.10;99.90;;;;;;5006318;28;20033;-69
2022/11/10 11:21:01;;;;;;;13.55;1.50;;;14.00;99.90;;;;;;5012107;28;20040;-70
2022/11/10 11:23:30;;;;;;;6.00;1.23;;;14.00;99.90;;;;;;5013705;28;20053;-68
2022/11/10 11:26:09;;;;;;;12.65;1.42;;;14.00;99.90;;;;;;5018020;28;20046;-68
2022/11/10 11:28:56;;;;;;;14.50;1.38;;;14.00;99.90;;;;;;5017070;28;20121;-69
2022/11/10 11:31:29;;;;;;;9.23;1.50;;;14.00;99.90;;;;;;5014409;28;20675;-71
2022/11/10 11:34:12;;;;;;;11.73;1.23;;;14.00;99.90;;;;;;5012111;28;20064;-68
2022/11/10 11:36:58;;;;;;;17.02;1.92;;;14.00;99.90;;;;;;5012012;28;20125;-69
2022/11/10 11:39:47;;;;;;;9.88;1.73;;;14.00;99.90;;;;;;5013346;28;20111;-69
2022/11/10 11:42:22;;;;;;;9.55;1.50;;;14.10;99.90;;;;;;5008432;28;20119;-68
2022/11/10 11:45:15;;;;;;;11.82;1.23;;;14.10;99.90;;;;;;5015690;28;20090;-69
2022/11/10 11:47:59;;;;;;;9.98;1.27;;;14.20;99.90;;;;;;5013387;28;20044;-69
2022/11/10 11:50:31;;;;;;;8.18;1.10;;;14.10;99.90;;;;;;5013363;28;20148;-69
2022/11/10 11:52:59;;;;;;;14.73;2.20;;;14.10;99.90;;;;;;5006445;28;20118;-70
2022/11/10 11:55:31;;;;;;;20.45;2.05;;;14.10;99.90;;;;;;5014323;28;20124;-68
2022/11/10 11:58:15;;;;;;;11.35;2.28;;;14.00;99.90;;;;;;5017164;28;20029;-69
2022/11/10 12:00:49;;;;;;;16.13;1.60;;;14.00;99.90;;;;;;5012822;28;20053;-70
2022/11/10 12:03:34;;;;;;;9.82;1.25;;;14.00;99.90;;;;;;5013861;28;20090;-69
2022/11/10 12:06:25;;;;;;;19.65;1.90;;;14.00;99.90;;;;;;5013695;28;20050;-69
2022/11/10 12:09:05;;;;;;;8.95;1.00;;;14.00;99.90;;;;;;5015829;28;20038;-68
2022/11/10 12:11:38;;;;;;;14.75;1.45;;;14.00;99.90;;;;;;5015146;28;20483;-70
2022/11/10 12:14:25;;;;;;;9.15;2.58;;;14.00;99.90;;;;;;5013306;28;20046;-69
2022/11/10 12:17:15;;;;;;;7.38;1.48;;;14.00;99.90;;;;;;5017026;28;20109;-69
2022/11/10 12:20:03;;;;;;;6.10;1.90;;;14.00;99.90;;;;;;5016763;28;20046;-70
2022/11/10 12:22:51;;;;;;;14.27;1.85;;;14.00;99.90;;;;;;5013640;28;20052;-69
2022/11/10 12:25:33;;;;;;;17.45;2.05;;;14.00;99.90;;;;;;5014774;28;20041;-70
2022/11/10 12:28:22;;;;;;;9.38;1.42;;;14.00;99.90;;;;;;5013739;28;20033;-69
2022/11/10 12:30:52;;;;;;;9.15;2.33;;;14.10;99.90;;;;;;5013749;28;20045;-69
2022/11/10 12:33:48;;;;;;;9.23;1.40;;;14.10;99.90;;;;;;5017387;28;20041;-68
2022/11/10 12:36:16;;;;;;;7.65;2.35;;;14.20;99.90;;;;;;5013508;28;20128;-70
2022/11/10 12:38:57;;;;;;;9.18;1.65;;;14.20;99.90;;;;;;5016043;28;20033;-70
2022/11/10 12:41:42;;;;;;;7.45;1.45;;;14.30;99.90;;;;;;5015984;28;20041;-69
2022/11/10 12:44:38;;;;;;;5.65;1.23;;;14.30;99.90;;;;;;5016437;28;20029;-69
2022/11/10 12:47:05;;;;;;;9.50;1.60;;;14.30;99.90;;;;;;5014940;28;20049;-69
2022/11/10 12:49:47;;;;;;;10.02;2.45;;;14.30;99.90;;;;;;5015902;28;20760;-69
2022/11/10 12:52:26;;;;;;;9.27;1.23;;;14.30;99.90;;;;;;5014804;28;20034;-69
2022/11/10 12:54:52;;;;;;;11.45;1.33;;;14.30;99.90;;;;;;5014837;28;20518;-69
2022/11/10 12:57:24;;;;;;;13.18;1.48;;;14.20;99.90;;;;;;5018853;28;20025;-68
2022/11/10 13:00:26;;;;;;;4.93;1.98;;;14.30;99.90;;;;;;5019132;28;20482;-68
2022/11/10 13:02:54;;;;;;;4.93;0.95;;;14.40;99.90;;;;;;5014023;28;20033;-69
2022/11/10 13:05:40;;;;;;;5.10;1.25;;;14.30;99.90;;;;;;5012734;28;20120;-71
2022/11/10 13:08:45;;;;;;;5.68;1.00;;;14.30;99.90;;;;;;5018724;28;20037;-69
2022/11/10 13:11:11;;;;;;;13.35;1.20;;;14.20;99.90;;;;;;4961896;28;20035;-70
2022/11/10 13:13:56;;;;;;;8.40;1.10;;;14.20;99.90;;;;;;4974900;28;20042;-69